createdAt,value
2018-09-08T00:00:41.461Z,12.50
2018-09-08T00:03:10.413Z,12.40
2018-09-08T00:05:39.233Z,12.50
2018-09-08T00:08:08.230Z,12.40
2018-09-08T00:10:37.372Z,12.40
2018-09-08T00:13:06.268Z,12.40
2018-09-08T00:15:40.621Z,12.40
2018-09-08T00:18:14.427Z,12.40
2018-09-08T00:20:48.228Z,12.30
2018-09-08T00:23:22.157Z,12.30
2018-09-08T00:25:56.270Z,12.30
2018-09-08T00:28:39.591Z,12.30
2018-09-08T00:31:16.785Z,12.30
2018-09-08T00:33:45.949Z,12.30
2018-09-08T00:36:14.830Z,12.20
2018-09-08T00:38:43.841Z,12.20
2018-09-08T00:41:12.883Z,12.10
2018-09-08T00:43:41.828Z,12.10
2018-09-08T00:46:11.121Z,12.10
2018-09-08T00:48:39.931Z,12.10
2018-09-08T00:51:09.048Z,12.10
2018-09-08T00:53:38.331Z,12.10
2018-09-08T00:56:07.216Z,12.00
2018-09-08T00:58:36.090Z,12.00
2018-09-08T01:01:05.081Z,12.00
2018-09-08T01:03:34.072Z,12.00
2018-09-08T01:06:02.987Z,12.00
2018-09-08T01:08:31.913Z,12.00
2018-09-08T01:11:00.741Z,11.90
2018-09-08T01:13:29.643Z,11.90
2018-09-08T01:15:58.469Z,11.90
2018-09-08T01:18:27.420Z,11.90
2018-09-08T01:20:56.421Z,11.90
2018-09-08T01:23:30.055Z,11.90
2018-09-08T01:25:59.251Z,11.90
2018-09-08T01:28:28.099Z,11.90
2018-09-08T01:30:57.209Z,11.80
2018-09-08T01:33:26.153Z,11.80
2018-09-08T01:35:55.330Z,11.70
2018-09-08T01:38:24.283Z,11.70
2018-09-08T01:40:53.172Z,11.70
2018-09-08T01:43:22.393Z,11.70
2018-09-08T01:45:51.254Z,11.70
2018-09-08T01:48:24.365Z,11.70
2018-09-08T01:50:53.543Z,11.70
2018-09-08T01:53:22.615Z,11.70
2018-09-08T01:55:51.501Z,11.70
2018-09-08T01:58:20.439Z,11.60
2018-09-08T02:00:54.152Z,11.70
2018-09-08T02:03:23.200Z,11.70
2018-09-08T02:05:52.069Z,11.60
2018-09-08T02:08:26.084Z,11.70
2018-09-08T02:10:55.253Z,11.60
2018-09-08T02:13:24.167Z,11.60
2018-09-08T02:15:53.021Z,11.60
2018-09-08T02:18:21.838Z,11.60
2018-09-08T02:20:50.684Z,11.60
2018-09-08T02:23:25.639Z,11.60
2018-09-08T02:25:54.660Z,11.60
2018-09-08T02:28:23.716Z,11.50
2018-09-08T02:30:52.812Z,11.50
2018-09-08T02:33:21.642Z,11.50
2018-09-08T02:35:50.529Z,11.50
2018-09-08T02:38:19.390Z,11.50
2018-09-08T02:40:48.422Z,11.50
2018-09-08T02:43:20.620Z,11.50
2018-09-08T02:45:49.676Z,11.50
2018-09-08T02:48:18.645Z,11.50
2018-09-08T02:50:46.220Z,11.50
2018-09-08T02:53:14.723Z,11.50
2018-09-08T02:55:42.171Z,11.50
2018-09-08T02:58:09.718Z,11.50
2018-09-08T03:00:37.085Z,11.50
2018-09-08T03:03:04.738Z,11.50
2018-09-08T03:05:32.107Z,11.50
2018-09-08T03:07:59.897Z,11.40
2018-09-08T03:10:27.419Z,11.40
2018-09-08T03:12:55.186Z,11.40
2018-09-08T03:15:22.666Z,11.40
2018-09-08T03:17:55.278Z,11.40
2018-09-08T03:20:23.134Z,11.40
2018-09-08T03:22:50.748Z,11.40
2018-09-08T03:25:18.615Z,11.40
2018-09-08T03:27:46.288Z,11.30
2018-09-08T03:30:13.729Z,11.30
2018-09-08T03:32:41.802Z,11.30
2018-09-08T03:35:09.468Z,11.30
2018-09-08T03:37:42.662Z,11.30
2018-09-08T03:40:10.321Z,11.30
2018-09-08T03:42:37.914Z,11.30
2018-09-08T03:45:05.667Z,11.30
2018-09-08T03:47:33.411Z,11.30
2018-09-08T03:50:01.074Z,11.30
2018-09-08T03:52:37.869Z,11.20
2018-09-08T03:55:05.510Z,11.20
2018-09-08T03:57:33.073Z,11.20
2018-09-08T04:00:00.735Z,11.20
2018-09-08T04:02:29.421Z,11.20
2018-09-08T04:04:58.472Z,11.20
2018-09-08T04:07:27.484Z,11.20
2018-09-08T04:09:56.614Z,11.20
2018-09-08T04:12:27.752Z,11.20
2018-09-08T04:14:56.957Z,11.20
2018-09-08T04:17:25.985Z,11.20
2018-09-08T04:19:55.179Z,11.20
2018-09-08T04:22:28.599Z,11.20
2018-09-08T04:24:57.735Z,11.20
2018-09-08T04:27:26.977Z,11.20
2018-09-08T04:29:56.356Z,11.20
2018-09-08T04:32:25.388Z,11.20
2018-09-08T04:34:54.451Z,11.20
2018-09-08T04:37:23.669Z,11.20
2018-09-08T04:39:52.847Z,11.30
2018-09-08T04:42:37.956Z,11.20
2018-09-08T04:45:07.139Z,11.20
2018-09-08T04:47:36.501Z,11.20
2018-09-08T04:50:05.629Z,11.20
2018-09-08T04:52:34.715Z,11.20
2018-09-08T04:55:03.833Z,11.20
2018-09-08T04:57:33.022Z,11.20
2018-09-08T05:00:02.203Z,11.20
2018-09-08T05:02:34.866Z,11.30
2018-09-08T05:05:03.984Z,11.30
2018-09-08T05:07:33.115Z,11.30
2018-09-08T05:10:02.313Z,11.30
2018-09-08T05:12:31.409Z,11.40
2018-09-08T05:15:00.490Z,11.40
2018-09-08T05:17:29.515Z,11.40
2018-09-08T05:19:58.501Z,11.50
2018-09-08T05:22:27.885Z,11.50
2018-09-08T05:24:57.018Z,11.50
2018-09-08T05:27:26.370Z,11.50
2018-09-08T05:29:57.754Z,11.50
2018-09-08T05:32:26.862Z,11.60
2018-09-08T05:34:55.908Z,11.60
2018-09-08T05:37:25.019Z,11.70
2018-09-08T05:39:54.166Z,11.70
2018-09-08T05:42:23.417Z,11.80
2018-09-08T05:44:52.881Z,11.90
2018-09-08T05:47:22.333Z,11.90
2018-09-08T05:49:57.518Z,12.00
2018-09-08T05:52:26.672Z,12.10
2018-09-08T05:54:57.229Z,12.10
2018-09-08T05:57:39.005Z,12.10
2018-09-08T06:00:12.486Z,12.20
2018-09-08T06:05:35.821Z,12.20
2018-09-08T06:08:07.059Z,12.30
2018-09-08T06:10:36.339Z,12.30
2018-09-08T06:13:05.874Z,12.30
2018-09-08T06:15:38.664Z,12.40
2018-09-08T06:18:09.108Z,12.40
2018-09-08T06:20:38.082Z,12.40
2018-09-08T06:23:06.406Z,12.50
2018-09-08T06:25:36.426Z,12.50
2018-09-08T06:28:05.575Z,12.60
2018-09-08T06:30:35.877Z,12.70
2018-09-08T06:33:04.897Z,12.70
2018-09-08T06:35:37.489Z,12.70
2018-09-08T06:38:10.315Z,12.80
2018-09-08T06:40:39.455Z,12.80
2018-09-08T06:43:08.529Z,12.90
2018-09-08T06:45:38.440Z,13.00
2018-09-08T06:48:07.509Z,13.10
2018-09-08T06:50:37.673Z,13.10
2018-09-08T06:53:06.725Z,13.20
2018-09-08T06:55:35.589Z,13.30
2018-09-08T06:58:04.696Z,13.40
2018-09-08T07:00:33.666Z,13.50
2018-09-08T07:03:02.580Z,13.50
2018-09-08T07:05:31.553Z,13.60
2018-09-08T07:08:00.566Z,13.80
2018-09-08T07:10:29.713Z,13.90
2018-09-08T07:12:58.714Z,14.00
2018-09-08T07:15:28.066Z,14.10
2018-09-08T07:17:58.178Z,14.50
2018-09-08T07:20:27.197Z,14.70
2018-09-08T07:22:56.011Z,14.80
2018-09-08T07:25:25.076Z,14.90
2018-09-08T07:27:54.092Z,14.90
2018-09-08T07:30:23.037Z,15.30
2018-09-08T07:33:00.211Z,15.50
2018-09-08T07:35:29.224Z,15.30
2018-09-08T07:37:58.069Z,15.30
2018-09-08T07:40:26.967Z,15.50
2018-09-08T07:42:55.857Z,15.80
2018-09-08T07:45:24.829Z,16.20
2018-09-08T07:47:53.775Z,16.20
2018-09-08T07:50:22.741Z,16.60
2018-09-08T07:52:51.776Z,16.80
2018-09-08T07:55:20.615Z,16.50
2018-09-08T07:57:49.445Z,16.70
2018-09-08T08:00:18.513Z,16.60
2018-09-08T08:02:47.481Z,17.00
2018-09-08T08:05:16.436Z,17.50
2018-09-08T08:07:45.463Z,17.70
2018-09-08T08:10:14.336Z,17.20
2018-09-08T08:12:43.372Z,17.60
2018-09-08T08:15:12.508Z,17.70
2018-09-08T08:17:41.483Z,17.80
2018-09-08T08:20:10.496Z,17.90
2018-09-08T08:22:43.383Z,18.50
2018-09-08T08:25:12.758Z,18.60
2018-09-08T08:27:58.560Z,19.20
2018-09-08T08:30:27.865Z,19.50
2018-09-08T08:32:57.124Z,19.30
2018-09-08T08:35:26.676Z,19.00
2018-09-08T08:37:56.056Z,19.50
2018-09-08T08:40:25.079Z,18.60
2018-09-08T08:42:54.064Z,18.60
2018-09-08T08:45:22.962Z,18.50
2018-09-08T08:47:51.946Z,18.70
2018-09-08T08:50:31.888Z,19.00
2018-09-08T08:53:11.766Z,19.20
2018-09-08T08:55:40.672Z,19.90
2018-09-08T08:58:09.637Z,20.00
2018-09-08T09:00:40.805Z,20.00
2018-09-08T09:03:09.643Z,20.00
2018-09-08T09:05:38.562Z,19.90
2018-09-08T09:08:07.505Z,19.70
2018-09-08T09:10:36.373Z,20.40
2018-09-08T09:13:05.684Z,20.70
2018-09-08T09:15:35.250Z,20.20
2018-09-08T09:18:04.148Z,20.30
2018-09-08T09:20:44.087Z,20.30
2018-09-08T09:23:25.951Z,20.50
2018-09-08T09:25:55.194Z,20.80
2018-09-08T09:28:24.415Z,20.70
2018-09-08T09:30:53.739Z,20.70
2018-09-08T09:33:23.054Z,21.10
2018-09-08T09:35:53.205Z,21.60
2018-09-08T09:38:22.501Z,21.90
2018-09-08T09:40:51.610Z,21.90
2018-09-08T09:43:20.926Z,21.80
2018-09-08T09:45:50.325Z,21.60
2018-09-08T09:48:19.435Z,21.50
2018-09-08T09:50:48.689Z,22.00
2018-09-08T09:53:17.999Z,22.20
2018-09-08T09:55:47.225Z,21.90
2018-09-08T09:58:16.462Z,21.90
2018-09-08T10:00:50.995Z,21.80
2018-09-08T10:03:20.361Z,21.70
2018-09-08T10:05:49.617Z,21.60
2018-09-08T10:08:18.755Z,21.60
2018-09-08T10:10:48.058Z,21.90
2018-09-08T10:13:23.644Z,22.00
2018-09-08T10:15:52.744Z,21.90
2018-09-08T10:18:21.996Z,21.90
2018-09-08T10:20:51.102Z,22.00
2018-09-08T10:23:20.380Z,21.90
2018-09-08T10:25:49.475Z,21.90
2018-09-08T10:28:18.945Z,21.70
2018-09-08T10:30:48.178Z,21.90
2018-09-08T10:33:17.331Z,22.00
2018-09-08T10:35:46.818Z,22.00
2018-09-08T10:38:16.163Z,22.00
2018-09-08T10:40:45.477Z,22.40
2018-09-08T10:43:14.552Z,22.50
2018-09-08T10:45:43.865Z,22.70
2018-09-08T10:48:13.276Z,22.90
2018-09-08T10:50:42.510Z,22.90
2018-09-08T10:53:11.983Z,23.00
2018-09-08T10:55:41.076Z,23.00
2018-09-08T10:58:10.376Z,22.90
2018-09-08T11:00:40.158Z,22.80
2018-09-08T11:03:09.319Z,22.80
2018-09-08T11:05:38.586Z,23.00
2018-09-08T11:08:07.693Z,22.70
2018-09-08T11:10:36.897Z,23.20
2018-09-08T11:13:05.993Z,23.50
2018-09-08T11:15:35.244Z,23.40
2018-09-08T11:18:04.508Z,23.40
2018-09-08T11:20:33.780Z,23.40
2018-09-08T11:23:03.107Z,23.40
2018-09-08T11:25:32.197Z,23.60
2018-09-08T11:28:01.383Z,23.60
2018-09-08T11:30:34.586Z,23.40
2018-09-08T11:33:03.764Z,23.10
2018-09-08T11:35:32.926Z,23.00
2018-09-08T11:38:02.206Z,23.00
2018-09-08T11:40:31.296Z,22.90
2018-09-08T11:43:00.447Z,22.90
2018-09-08T11:45:29.620Z,22.90
2018-09-08T11:47:58.867Z,23.00
2018-09-08T11:50:27.847Z,22.90
2018-09-08T11:52:57.173Z,23.10
2018-09-08T11:55:26.452Z,23.00
2018-09-08T11:57:55.617Z,22.90
2018-09-08T12:00:24.859Z,22.90
2018-09-08T12:02:54.185Z,22.80
2018-09-08T12:05:23.213Z,22.80
2018-09-08T12:10:45.100Z,22.90
2018-09-08T12:13:14.208Z,22.70
2018-09-08T12:15:43.579Z,22.50
2018-09-08T12:18:12.706Z,22.50
2018-09-08T12:20:41.742Z,22.60
2018-09-08T12:23:14.651Z,22.50
2018-09-08T12:25:44.173Z,22.40
2018-09-08T12:28:13.382Z,22.40
2018-09-08T12:30:42.582Z,22.40
2018-09-08T12:33:11.711Z,22.50
2018-09-08T12:35:41.385Z,22.40
2018-09-08T12:38:11.559Z,22.10
2018-09-08T12:40:41.255Z,22.20
2018-09-08T12:43:10.694Z,22.50
2018-09-08T12:45:39.926Z,22.60
2018-09-08T12:48:09.209Z,22.60
2018-09-08T12:50:38.129Z,22.30
2018-09-08T12:53:07.712Z,22.30
2018-09-08T12:55:36.892Z,22.60
2018-09-08T12:58:23.483Z,22.90
2018-09-08T13:00:53.539Z,23.30
2018-09-08T13:03:22.608Z,23.20
2018-09-08T13:05:52.004Z,23.30
2018-09-08T13:08:21.122Z,23.70
2018-09-08T13:10:50.239Z,23.80
2018-09-08T13:13:19.392Z,23.90
2018-09-08T13:15:48.588Z,24.00
2018-09-08T13:18:27.202Z,24.20
2018-09-08T13:20:56.214Z,24.30
2018-09-08T13:23:25.410Z,24.50
2018-09-08T13:25:54.371Z,24.40
2018-09-08T13:28:23.295Z,24.40
2018-09-08T13:30:52.344Z,24.30
2018-09-08T13:33:21.260Z,24.30
2018-09-08T13:35:50.254Z,24.30
2018-09-08T13:38:19.198Z,24.30
2018-09-08T13:40:48.114Z,24.30
2018-09-08T13:43:17.256Z,24.30
2018-09-08T13:45:46.149Z,24.50
2018-09-08T13:48:15.417Z,24.60
2018-09-08T13:50:44.306Z,24.80
2018-09-08T13:53:13.166Z,25.20
2018-09-08T13:55:46.465Z,25.50
2018-09-08T13:58:16.449Z,25.80
2018-09-08T14:00:57.635Z,26.00
2018-09-08T14:03:26.680Z,26.20
2018-09-08T14:05:55.724Z,26.20
2018-09-08T14:08:25.072Z,26.20
2018-09-08T14:10:54.068Z,26.10
2018-09-08T14:13:24.015Z,26.10
2018-09-08T14:15:52.896Z,25.80
2018-09-08T14:18:21.758Z,25.70
2018-09-08T14:20:50.882Z,25.90
2018-09-08T14:23:19.641Z,25.90
2018-09-08T14:25:52.384Z,25.80
2018-09-08T14:28:21.421Z,25.60
2018-09-08T14:30:50.683Z,25.50
2018-09-08T14:33:20.144Z,25.50
2018-09-08T14:35:49.371Z,25.30
2018-09-08T14:38:18.425Z,25.20
2018-09-08T14:41:12.751Z,25.10
2018-09-08T14:43:44.213Z,25.10
2018-09-08T14:46:13.284Z,25.00
2018-09-08T14:48:42.239Z,24.60
2018-09-08T14:51:11.301Z,24.60
2018-09-08T14:53:40.125Z,24.60
2018-09-08T14:56:09.062Z,24.50
2018-09-08T14:58:38.044Z,24.50
2018-09-08T15:01:06.878Z,24.40
2018-09-08T15:03:36.089Z,24.40
2018-09-08T15:06:05.102Z,24.60
2018-09-08T15:08:34.135Z,24.70
2018-09-08T15:11:03.339Z,24.90
2018-09-08T15:13:32.080Z,25.00
2018-09-08T15:16:01.067Z,25.20
2018-09-08T15:18:30.059Z,25.30
2018-09-08T15:20:58.904Z,25.30
2018-09-08T15:23:28.117Z,25.40
2018-09-08T15:25:56.917Z,25.80
2018-09-08T15:28:25.649Z,26.00
2018-09-08T15:30:54.320Z,26.20
2018-09-08T15:33:23.040Z,26.40
2018-09-08T15:35:51.862Z,26.60
2018-09-08T15:38:20.642Z,26.60
2018-09-08T15:40:50.577Z,26.50
2018-09-08T15:43:25.245Z,26.20
2018-09-08T15:46:02.196Z,26.20
2018-09-08T15:48:38.202Z,26.20
2018-09-08T15:51:13.063Z,26.00
2018-09-08T15:53:51.168Z,25.80
2018-09-08T15:56:26.466Z,25.60
2018-09-08T15:59:01.374Z,25.40
2018-09-08T16:01:36.482Z,25.10
2018-09-08T16:04:11.707Z,25.00
2018-09-08T16:06:46.621Z,24.60
2018-09-08T16:09:23.501Z,24.50
2018-09-08T16:11:57.999Z,24.40
2018-09-08T16:14:33.362Z,24.30
2018-09-08T16:17:02.210Z,24.20
2018-09-08T16:19:30.985Z,24.10
2018-09-08T16:22:10.653Z,24.00
2018-09-08T16:24:39.484Z,23.90
2018-09-08T16:27:08.487Z,23.80
2018-09-08T16:29:37.449Z,23.60
2018-09-08T16:32:06.466Z,23.50
2018-09-08T16:34:36.043Z,23.40
2018-09-08T16:37:05.128Z,23.40
2018-09-08T16:39:34.620Z,23.30
2018-09-08T16:42:03.574Z,23.10
2018-09-08T16:44:32.505Z,23.00
2018-09-08T16:47:01.394Z,22.90
2018-09-08T16:49:30.483Z,22.90
2018-09-08T16:51:59.605Z,22.80
2018-09-08T16:54:28.468Z,22.70
2018-09-08T16:56:57.404Z,22.60
2018-09-08T16:59:26.376Z,22.60
2018-09-08T17:01:55.300Z,22.40
2018-09-08T17:04:24.295Z,22.30
2018-09-08T17:06:53.284Z,22.30
2018-09-08T17:09:22.300Z,22.20
2018-09-08T17:11:51.169Z,22.10
2018-09-08T17:14:20.196Z,22.00
2018-09-08T17:16:49.105Z,22.00
2018-09-08T17:19:18.060Z,21.90
2018-09-08T17:21:47.044Z,21.90
2018-09-08T17:24:16.001Z,21.80
2018-09-08T17:26:44.810Z,21.70
2018-09-08T17:29:14.006Z,21.70
2018-09-08T17:31:42.730Z,21.60
2018-09-08T17:34:11.668Z,21.50
2018-09-08T17:36:40.281Z,21.40
2018-09-08T17:39:11.326Z,21.40
2018-09-08T17:41:40.315Z,21.30
2018-09-08T17:44:09.378Z,21.20
2018-09-08T17:46:39.597Z,21.20
2018-09-08T17:49:08.582Z,21.10
2018-09-08T17:51:37.631Z,21.00
2018-09-08T17:54:10.624Z,21.00
2018-09-08T17:56:39.881Z,20.90
2018-09-08T17:59:08.760Z,20.80
2018-09-08T18:01:37.750Z,20.80
2018-09-08T18:04:06.735Z,20.80
2018-09-08T18:06:35.822Z,20.70
2018-09-08T18:09:05.333Z,20.60
2018-09-08T18:11:34.314Z,20.50
2018-09-08T18:14:03.804Z,20.40
2018-09-08T18:16:32.704Z,20.40
2018-09-08T18:19:01.559Z,20.30
2018-09-08T18:21:30.489Z,20.20
2018-09-08T18:23:59.385Z,20.20
2018-09-08T18:26:32.184Z,20.10
2018-09-08T18:29:01.231Z,20.10
2018-09-08T18:31:30.835Z,20.00
2018-09-08T18:33:59.798Z,19.90
2018-09-08T18:36:28.711Z,19.90
2018-09-08T18:38:57.643Z,19.80
2018-09-08T18:41:26.958Z,19.80
2018-09-08T18:43:56.406Z,19.70
2018-09-08T18:46:25.565Z,19.70
2018-09-08T18:48:55.236Z,19.60
2018-09-08T18:51:24.385Z,19.60
2018-09-08T18:53:53.457Z,19.60
2018-09-08T18:56:22.455Z,19.50
2018-09-08T18:58:55.365Z,19.50
2018-09-08T19:01:24.231Z,19.40
2018-09-08T19:03:53.215Z,19.30
2018-09-08T19:06:22.526Z,19.30
2018-09-08T19:08:51.560Z,19.30
2018-09-08T19:11:20.519Z,19.20
2018-09-08T19:13:49.572Z,19.20
2018-09-08T19:16:18.498Z,19.10
2018-09-08T19:18:48.018Z,19.10
2018-09-08T19:21:16.969Z,19.00
2018-09-08T19:23:46.007Z,19.00
2018-09-08T19:26:15.100Z,18.90
2018-09-08T19:28:45.790Z,18.90
2018-09-08T19:31:15.079Z,18.80
2018-09-08T19:33:44.027Z,18.80
2018-09-08T19:36:13.101Z,18.80
2018-09-08T19:38:41.997Z,18.80
2018-09-08T19:41:11.176Z,18.70
2018-09-08T19:43:40.852Z,18.70
2018-09-08T19:46:14.716Z,18.70
2018-09-08T19:48:48.260Z,18.60
2018-09-08T19:51:17.424Z,18.60
2018-09-08T19:53:51.495Z,18.60
2018-09-08T19:56:24.504Z,18.50
2018-09-08T19:58:57.371Z,18.50
2018-09-08T20:01:26.795Z,18.50
2018-09-08T20:03:56.960Z,18.40
2018-09-08T20:06:25.685Z,18.40
2018-09-08T20:08:55.331Z,18.30
2018-09-08T20:11:24.420Z,18.30
2018-09-08T20:13:53.732Z,18.30
2018-09-08T20:16:22.523Z,18.20
2018-09-08T20:18:51.450Z,18.20
2018-09-08T20:21:20.285Z,18.20
2018-09-08T20:23:49.295Z,18.10
2018-09-08T20:26:18.359Z,18.10
2018-09-08T20:28:47.518Z,18.00
2018-09-08T20:31:16.239Z,18.00
2018-09-08T20:33:44.895Z,17.90
2018-09-08T20:36:13.741Z,17.90
2018-09-08T20:38:42.658Z,17.90
2018-09-08T20:41:11.331Z,17.90
2018-09-08T20:43:40.206Z,17.80
2018-09-08T20:46:09.178Z,17.80
2018-09-08T20:48:38.115Z,17.80
2018-09-08T20:51:07.034Z,17.70
2018-09-08T20:53:36.191Z,17.70
2018-09-08T20:56:05.283Z,17.70
2018-09-08T20:58:34.308Z,17.60
2018-09-08T21:01:03.308Z,17.60
2018-09-08T21:03:32.366Z,17.60
2018-09-08T21:06:01.502Z,17.60
2018-09-08T21:08:35.466Z,17.50
2018-09-08T21:11:04.728Z,17.50
2018-09-08T21:13:33.880Z,17.40
2018-09-08T21:16:03.256Z,17.40
2018-09-08T21:18:35.596Z,17.40
2018-09-08T21:21:04.464Z,17.40
2018-09-08T21:23:33.507Z,17.30
2018-09-08T21:26:02.494Z,17.30
2018-09-08T21:28:31.738Z,17.30
2018-09-08T21:31:00.962Z,17.30
2018-09-08T21:33:29.809Z,17.30
2018-09-08T21:35:58.918Z,17.20
2018-09-08T21:38:29.925Z,17.20
2018-09-08T21:40:58.829Z,17.20
2018-09-08T21:43:27.749Z,17.10
2018-09-08T21:45:56.700Z,17.10
2018-09-08T21:48:25.736Z,17.10
2018-09-08T21:50:54.584Z,17.10
2018-09-08T21:53:27.508Z,17.00
2018-09-08T21:55:56.412Z,17.00
2018-09-08T21:58:25.525Z,17.00
2018-09-08T22:00:56.092Z,16.90
2018-09-08T22:03:26.866Z,16.90
2018-09-08T22:05:55.731Z,16.90
2018-09-08T22:08:24.693Z,16.90
2018-09-08T22:10:53.542Z,16.90
2018-09-08T22:13:22.673Z,16.80
2018-09-08T22:15:51.507Z,16.80
2018-09-08T22:18:21.010Z,16.80
2018-09-08T22:20:49.853Z,16.80
2018-09-08T22:23:18.726Z,16.80
2018-09-08T22:25:47.708Z,16.80
2018-09-08T22:28:16.544Z,16.70
2018-09-08T22:30:45.754Z,16.70
2018-09-08T22:33:14.643Z,16.70
2018-09-08T22:35:43.909Z,16.70
2018-09-08T22:38:13.062Z,16.60
2018-09-08T22:40:41.957Z,16.60
2018-09-08T22:43:11.246Z,16.60
2018-09-08T22:45:40.222Z,16.60
2018-09-08T22:48:09.215Z,16.50
2018-09-08T22:50:39.368Z,16.50
2018-09-08T22:53:09.379Z,16.50
2018-09-08T22:55:38.238Z,16.50
2018-09-08T22:58:07.975Z,16.40
2018-09-08T23:00:36.779Z,16.40
2018-09-08T23:03:05.779Z,16.40
2018-09-08T23:05:34.667Z,16.40
2018-09-08T23:08:03.863Z,16.30
2018-09-08T23:10:32.693Z,16.30
2018-09-08T23:13:01.520Z,16.30
2018-09-08T23:15:37.425Z,16.30
2018-09-08T23:18:06.560Z,16.20
2018-09-08T23:20:35.431Z,16.20
2018-09-08T23:23:04.451Z,16.20
2018-09-08T23:25:33.488Z,16.20
2018-09-08T23:28:02.391Z,16.20
2018-09-08T23:30:31.345Z,16.20
2018-09-08T23:33:00.395Z,16.10
2018-09-08T23:35:29.237Z,16.10
2018-09-08T23:37:58.126Z,16.10
2018-09-08T23:40:27.052Z,16.10
2018-09-08T23:42:56.239Z,16.10
2018-09-08T23:45:25.112Z,16.10
2018-09-08T23:47:54.065Z,16.10
2018-09-08T23:50:28.279Z,16.00
2018-09-08T23:52:57.216Z,16.00
2018-09-08T23:55:26.092Z,16.00
2018-09-08T23:57:55.067Z,15.90
